createdAt,value
2019-01-23T00:00:49.821Z,19.00
2019-01-23T00:03:21.134Z,16.17
2019-01-23T00:05:52.729Z,17.20
2019-01-23T00:08:24.237Z,16.83
2019-01-23T00:11:00.510Z,16.60
2019-01-23T00:13:32.015Z,15.93
2019-01-23T00:16:03.476Z,16.20
2019-01-23T00:18:36.191Z,16.37
2019-01-23T00:21:08.657Z,16.70
2019-01-23T00:23:41.859Z,15.87
2019-01-23T00:26:13.825Z,16.47
2019-01-23T00:28:45.857Z,17.13
2019-01-23T00:31:17.709Z,15.97
2019-01-23T00:33:49.615Z,17.23
2019-01-23T00:36:21.380Z,17.03
2019-01-23T00:38:53.229Z,16.53
2019-01-23T00:41:25.358Z,16.90
2019-01-23T00:43:56.714Z,16.47
2019-01-23T00:46:29.612Z,17.83
2019-01-23T00:49:01.593Z,16.50
2019-01-23T00:51:33.362Z,17.50
2019-01-23T00:54:05.038Z,16.83
2019-01-23T00:56:36.633Z,17.03
2019-01-23T00:59:08.214Z,17.40
2019-01-23T01:01:39.895Z,17.93
2019-01-23T01:04:11.558Z,17.47
2019-01-23T01:06:43.467Z,18.10
2019-01-23T01:09:15.148Z,19.13
2019-01-23T01:11:48.346Z,19.97
2019-01-23T01:14:20.018Z,21.53
2019-01-23T01:16:51.718Z,19.67
2019-01-23T01:19:23.291Z,19.57
2019-01-23T01:21:57.330Z,20.27
2019-01-23T01:24:30.488Z,19.50
2019-01-23T01:27:02.530Z,19.37
2019-01-23T01:29:34.608Z,20.27
2019-01-23T01:32:07.557Z,20.17
2019-01-23T01:34:40.856Z,20.87
2019-01-23T01:37:12.567Z,19.73
2019-01-23T01:39:44.059Z,20.10
2019-01-23T01:42:17.665Z,19.30
2019-01-23T01:44:49.201Z,19.30
2019-01-23T01:47:22.151Z,19.00
2019-01-23T01:49:57.121Z,19.03
2019-01-23T01:52:29.481Z,19.07
2019-01-23T01:55:01.072Z,18.33
2019-01-23T01:57:33.771Z,18.20
2019-01-23T02:00:09.109Z,17.60
2019-01-23T02:02:40.628Z,18.97
2019-01-23T02:05:12.449Z,17.97
2019-01-23T02:07:43.885Z,18.10
2019-01-23T02:10:17.411Z,17.50
2019-01-23T02:12:49.666Z,17.17
2019-01-23T02:15:21.377Z,16.67
2019-01-23T02:17:52.795Z,17.47
2019-01-23T02:20:26.520Z,16.70
2019-01-23T02:23:00.149Z,16.67
2019-01-23T02:25:31.679Z,16.67
2019-01-23T02:28:04.393Z,17.57
2019-01-23T02:30:36.495Z,16.57
2019-01-23T02:33:09.889Z,16.93
2019-01-23T02:35:41.556Z,16.87
2019-01-23T02:38:13.721Z,16.63
2019-01-23T02:40:46.018Z,17.80
2019-01-23T02:43:17.654Z,16.97
2019-01-23T02:45:49.303Z,16.73
2019-01-23T02:48:21.023Z,17.50
2019-01-23T02:50:52.698Z,16.63
2019-01-23T02:53:24.751Z,18.70
2019-01-23T02:55:56.594Z,17.10
2019-01-23T02:58:27.993Z,17.37
2019-01-23T03:01:00.546Z,17.37
2019-01-23T03:03:32.062Z,17.67
2019-01-23T03:06:05.753Z,16.80
2019-01-23T03:08:39.145Z,17.37
2019-01-23T03:11:10.823Z,16.97
2019-01-23T03:13:43.276Z,17.90
2019-01-23T03:16:14.957Z,17.43
2019-01-23T03:18:46.808Z,16.40
2019-01-23T03:21:18.195Z,16.93
2019-01-23T03:23:52.232Z,16.83
2019-01-23T03:26:25.636Z,17.87
2019-01-23T03:28:57.544Z,17.77
2019-01-23T03:31:29.206Z,18.17
2019-01-23T03:34:00.669Z,18.23
2019-01-23T03:36:32.704Z,18.50
2019-01-23T03:39:05.995Z,17.07
2019-01-23T03:41:37.883Z,18.43
2019-01-23T03:44:10.009Z,17.93
2019-01-23T03:46:41.655Z,16.97
2019-01-23T03:49:13.549Z,17.40
2019-01-23T03:51:44.908Z,17.23
2019-01-23T03:54:16.680Z,17.93
2019-01-23T03:56:48.473Z,17.77
2019-01-23T03:59:20.373Z,18.17
2019-01-23T04:01:54.767Z,18.63
2019-01-23T04:04:26.871Z,17.77
2019-01-23T04:06:59.234Z,18.10
2019-01-23T04:09:31.813Z,19.13
2019-01-23T04:12:06.810Z,18.87
2019-01-23T04:14:38.902Z,18.03
2019-01-23T04:17:13.108Z,18.13
2019-01-23T04:19:47.304Z,17.77
2019-01-23T04:22:19.079Z,17.17
2019-01-23T04:24:51.565Z,17.83
2019-01-23T04:27:24.199Z,16.67
2019-01-23T04:29:55.896Z,17.50
2019-01-23T04:32:27.272Z,17.83
2019-01-23T04:34:58.864Z,18.00
2019-01-23T04:37:30.318Z,18.97
2019-01-23T04:40:01.889Z,19.03
2019-01-23T04:42:33.320Z,20.67
2019-01-23T04:45:06.124Z,20.67
2019-01-23T04:47:37.647Z,23.30
2019-01-23T04:50:10.979Z,24.53
2019-01-23T04:52:50.353Z,23.33
2019-01-23T04:55:22.117Z,23.47
2019-01-23T04:57:55.006Z,22.37
2019-01-23T05:00:28.096Z,21.43
2019-01-23T05:02:59.555Z,21.33
2019-01-23T05:05:31.063Z,21.17
2019-01-23T05:08:02.809Z,20.63
2019-01-23T05:10:34.530Z,20.80
2019-01-23T05:13:08.930Z,20.40
2019-01-23T05:15:42.561Z,19.70
2019-01-23T05:18:14.235Z,19.17
2019-01-23T05:20:45.622Z,19.27
2019-01-23T05:23:17.871Z,19.47
2019-01-23T05:25:52.510Z,20.77
2019-01-23T05:28:24.196Z,22.07
2019-01-23T05:30:55.546Z,21.20
2019-01-23T05:33:27.366Z,21.77
2019-01-23T05:35:58.765Z,19.73
2019-01-23T05:38:30.249Z,19.10
2019-01-23T05:41:02.011Z,17.27
2019-01-23T05:43:34.979Z,16.70
2019-01-23T05:46:06.873Z,16.47
2019-01-23T05:48:38.613Z,15.13
2019-01-23T05:51:10.263Z,16.13
2019-01-23T05:53:42.059Z,16.07
2019-01-23T05:56:13.475Z,15.57
2019-01-23T05:58:45.043Z,15.13
2019-01-23T06:01:17.161Z,15.37
2019-01-23T06:03:48.896Z,27.60
2019-01-23T06:06:21.535Z,19.30
2019-01-23T06:08:53.409Z,24.73
2019-01-23T06:11:24.847Z,36.93
2019-01-23T06:13:58.476Z,19.57
2019-01-23T06:16:29.871Z,19.53
2019-01-23T06:19:01.786Z,20.33
2019-01-23T06:21:34.269Z,24.53
2019-01-23T06:24:06.464Z,19.87
2019-01-23T06:26:37.860Z,19.63
2019-01-23T06:29:10.099Z,18.90
2019-01-23T06:31:42.015Z,18.43
2019-01-23T06:34:15.156Z,18.10
2019-01-23T06:36:46.875Z,19.23
2019-01-23T06:39:18.771Z,19.90
2019-01-23T06:41:50.195Z,20.03
2019-01-23T06:44:22.169Z,20.37
2019-01-23T06:46:53.524Z,19.10
2019-01-23T06:49:26.083Z,22.37
2019-01-23T06:51:57.584Z,19.70
2019-01-23T06:54:29.427Z,19.47
2019-01-23T06:57:01.053Z,21.43
2019-01-23T06:59:32.543Z,18.70
2019-01-23T07:02:04.209Z,18.50
2019-01-23T07:04:39.355Z,19.20
2019-01-23T07:07:11.289Z,18.23
2019-01-23T07:09:43.281Z,20.13
2019-01-23T07:12:15.197Z,19.90
2019-01-23T07:14:47.087Z,18.83
2019-01-23T07:17:18.978Z,18.90
2019-01-23T07:19:50.947Z,17.63
2019-01-23T07:22:22.746Z,19.50
2019-01-23T07:24:55.105Z,17.80
2019-01-23T07:27:27.264Z,18.47
2019-01-23T07:29:59.286Z,19.63
2019-01-23T07:32:36.518Z,18.80
2019-01-23T07:35:09.917Z,19.03
2019-01-23T07:37:41.793Z,18.57
2019-01-23T07:40:13.658Z,18.97
2019-01-23T07:42:45.402Z,20.17
2019-01-23T07:45:17.912Z,17.53
2019-01-23T07:47:49.809Z,17.77
2019-01-23T07:50:21.458Z,17.50
2019-01-23T07:52:55.090Z,17.37
2019-01-23T07:55:27.072Z,17.77
2019-01-23T07:57:59.002Z,16.30
2019-01-23T08:00:31.699Z,17.40
2019-01-23T08:03:03.550Z,17.03
2019-01-23T08:05:36.559Z,17.63
2019-01-23T08:08:08.447Z,16.63
2019-01-23T08:10:40.470Z,17.03
2019-01-23T08:13:13.427Z,15.27
2019-01-23T08:15:46.629Z,16.53
2019-01-23T08:18:18.849Z,16.07
2019-01-23T08:20:50.826Z,16.00
2019-01-23T08:23:22.458Z,15.87
2019-01-23T08:25:54.445Z,16.00
2019-01-23T08:28:26.473Z,16.27
2019-01-23T08:30:58.037Z,15.23
2019-01-23T08:33:29.798Z,15.73
2019-01-23T08:36:02.562Z,15.33
2019-01-23T08:38:34.483Z,14.93
2019-01-23T08:41:06.078Z,15.33
2019-01-23T08:43:38.964Z,14.90
2019-01-23T08:46:10.669Z,20.03
2019-01-23T08:48:45.605Z,25.00
2019-01-23T08:51:17.931Z,27.27
2019-01-23T08:53:49.483Z,21.57
2019-01-23T08:56:20.931Z,15.33
2019-01-23T08:58:54.639Z,16.47
2019-01-23T09:01:26.731Z,16.53
2019-01-23T09:03:59.493Z,18.53
2019-01-23T09:06:31.185Z,15.60
2019-01-23T09:09:05.433Z,17.97
2019-01-23T09:11:37.417Z,14.73
2019-01-23T09:14:09.815Z,14.90
2019-01-23T09:16:41.447Z,14.57
2019-01-23T09:19:13.363Z,14.37
2019-01-23T09:21:46.357Z,14.40
2019-01-23T09:24:19.129Z,13.33
2019-01-23T09:26:52.215Z,13.80
2019-01-23T09:29:23.919Z,13.00
2019-01-23T09:32:18.216Z,12.80
2019-01-23T09:35:15.953Z,12.63
2019-01-23T09:38:11.820Z,13.00
2019-01-23T09:40:50.815Z,13.27
2019-01-23T09:44:04.688Z,12.37
2019-01-23T09:47:18.563Z,13.47
2019-01-23T09:50:18.954Z,12.60
2019-01-23T09:53:04.315Z,12.50
2019-01-23T09:55:37.327Z,12.53
2019-01-23T09:58:10.498Z,12.00
2019-01-23T10:00:42.308Z,12.63
2019-01-23T10:03:15.284Z,12.23
2019-01-23T10:05:46.792Z,12.80
2019-01-23T10:08:18.326Z,12.83
2019-01-23T10:10:49.753Z,13.17
2019-01-23T10:13:22.514Z,13.63
2019-01-23T10:16:05.432Z,13.00
2019-01-23T10:18:37.506Z,12.87
2019-01-23T10:21:09.103Z,12.67
2019-01-23T10:23:40.569Z,13.07
2019-01-23T10:26:12.016Z,12.93
2019-01-23T10:28:43.869Z,13.77
2019-01-23T10:31:15.837Z,14.47
2019-01-23T10:33:47.283Z,14.23
2019-01-23T10:36:20.143Z,15.00
2019-01-23T10:38:51.488Z,14.47
2019-01-23T10:41:23.075Z,15.87
2019-01-23T10:43:54.887Z,15.60
2019-01-23T10:46:26.279Z,16.43
2019-01-23T10:48:58.039Z,15.83
2019-01-23T10:51:29.643Z,15.93
2019-01-23T10:54:01.301Z,15.73
2019-01-23T10:56:33.092Z,15.73
2019-01-23T10:59:04.673Z,16.17
2019-01-23T11:01:36.002Z,16.83
2019-01-23T11:04:07.443Z,15.97
2019-01-23T11:06:39.341Z,15.30
2019-01-23T11:09:11.111Z,16.03
2019-01-23T11:11:42.703Z,15.73
2019-01-23T11:14:14.447Z,16.10
2019-01-23T11:16:46.063Z,16.77
2019-01-23T11:19:17.569Z,16.43
2019-01-23T11:21:49.573Z,16.97
2019-01-23T11:24:22.023Z,15.80
2019-01-23T11:26:54.368Z,16.23
2019-01-23T11:29:26.044Z,16.73
2019-01-23T11:31:58.059Z,16.47
2019-01-23T11:34:30.933Z,17.30
2019-01-23T11:37:03.253Z,17.43
2019-01-23T11:39:34.741Z,17.03
2019-01-23T11:42:06.887Z,16.93
2019-01-23T11:44:38.721Z,18.97
2019-01-23T11:47:10.320Z,18.00
2019-01-23T11:49:41.932Z,18.73
2019-01-23T11:52:13.556Z,36.80
2019-01-23T11:54:45.160Z,26.80
2019-01-23T11:57:17.748Z,22.43
2019-01-23T11:59:49.593Z,25.63
2019-01-23T12:02:21.710Z,19.63
2019-01-23T12:04:54.716Z,19.10
2019-01-23T12:07:26.708Z,18.63
2019-01-23T12:09:58.330Z,18.37
2019-01-23T12:12:31.089Z,18.90
2019-01-23T12:15:03.060Z,21.07
2019-01-23T12:17:35.224Z,18.87
2019-01-23T12:20:07.288Z,21.03
2019-01-23T12:22:40.634Z,23.53
2019-01-23T12:25:12.655Z,19.50
2019-01-23T12:27:44.919Z,17.53
2019-01-23T12:30:32.427Z,18.77
2019-01-23T12:33:04.296Z,17.53
2019-01-23T12:35:35.768Z,18.97
2019-01-23T12:38:08.251Z,20.37
2019-01-23T12:40:40.611Z,21.57
2019-01-23T12:43:12.398Z,21.63
2019-01-23T12:45:44.298Z,23.00
2019-01-23T12:48:15.790Z,22.03
2019-01-23T12:50:47.495Z,22.57
2019-01-23T12:53:19.414Z,21.87
2019-01-23T12:55:51.485Z,21.63
2019-01-23T12:58:22.952Z,22.17
2019-01-23T13:00:55.668Z,21.93
2019-01-23T13:03:29.418Z,23.17
2019-01-23T13:06:01.282Z,21.53
2019-01-23T13:08:33.000Z,22.93
2019-01-23T13:11:04.351Z,23.20
2019-01-23T13:13:35.979Z,22.83
2019-01-23T13:16:07.728Z,22.90
2019-01-23T13:18:39.476Z,23.00
2019-01-23T13:21:11.143Z,21.93
2019-01-23T13:23:42.808Z,22.97
2019-01-23T13:26:14.537Z,22.83
2019-01-23T13:28:46.169Z,22.43
2019-01-23T13:31:17.903Z,21.03
2019-01-23T13:33:50.363Z,21.77
2019-01-23T13:36:21.881Z,21.70
2019-01-23T13:38:54.145Z,22.27
2019-01-23T13:41:28.444Z,22.20
2019-01-23T13:44:00.481Z,21.57
2019-01-23T13:46:32.681Z,22.80
2019-01-23T13:49:04.792Z,22.30
2019-01-23T13:51:38.201Z,22.80
2019-01-23T13:54:12.287Z,22.20
2019-01-23T13:56:45.588Z,21.40
2019-01-23T13:59:17.109Z,20.50
2019-01-23T14:01:56.156Z,21.63
2019-01-23T14:04:25.331Z,22.37
2019-01-23T14:06:56.841Z,22.97
2019-01-23T14:09:29.569Z,22.23
2019-01-23T14:12:01.607Z,23.70
2019-01-23T14:14:33.315Z,24.50
2019-01-23T14:17:05.877Z,24.80
2019-01-23T14:19:38.692Z,23.07
2019-01-23T14:22:10.221Z,23.90
2019-01-23T14:24:44.301Z,23.53
2019-01-23T14:27:16.962Z,23.43
2019-01-23T14:29:49.885Z,22.37
2019-01-23T14:32:22.019Z,22.43
2019-01-23T14:34:54.325Z,22.93
2019-01-23T14:37:27.851Z,23.97
2019-01-23T14:39:59.283Z,23.80
2019-01-23T14:42:31.258Z,24.93
2019-01-23T14:45:04.797Z,23.17
2019-01-23T14:47:36.709Z,24.63
2019-01-23T14:50:10.519Z,24.17
2019-01-23T14:52:44.056Z,23.87
2019-01-23T14:55:16.055Z,23.47
2019-01-23T14:57:48.035Z,24.60
2019-01-23T15:00:21.889Z,23.43
2019-01-23T15:02:53.799Z,23.93
2019-01-23T15:05:25.823Z,23.67
2019-01-23T15:07:57.617Z,24.53
2019-01-23T15:10:31.133Z,26.00
2019-01-23T15:13:03.860Z,30.50
2019-01-23T15:15:35.857Z,28.67
2019-01-23T15:18:07.999Z,32.27
2019-01-23T15:20:41.350Z,39.50
2019-01-23T15:23:13.139Z,26.53
2019-01-23T15:25:46.353Z,23.43
2019-01-23T15:28:18.078Z,26.57
2019-01-23T15:30:51.534Z,28.10
2019-01-23T15:33:23.802Z,25.80
2019-01-23T15:35:55.785Z,29.33
2019-01-23T15:38:27.868Z,27.03
2019-01-23T15:40:59.611Z,28.73
2019-01-23T15:43:31.208Z,25.63
2019-01-23T15:46:02.979Z,22.93
2019-01-23T15:48:34.718Z,23.50
2019-01-23T15:51:06.535Z,23.67
2019-01-23T15:53:39.599Z,24.00
2019-01-23T15:56:11.215Z,24.97
2019-01-23T15:58:43.055Z,24.33
2019-01-23T16:01:14.916Z,24.97
2019-01-23T16:03:47.116Z,26.47
2019-01-23T16:06:19.635Z,26.87
2019-01-23T16:08:51.032Z,26.63
2019-01-23T16:11:25.550Z,27.17
2019-01-23T16:13:57.117Z,27.03
2019-01-23T16:16:28.625Z,27.50
2019-01-23T16:19:00.518Z,27.00
2019-01-23T16:21:32.171Z,26.03
2019-01-23T16:24:04.757Z,26.27
2019-01-23T16:26:36.841Z,25.07
2019-01-23T16:29:10.369Z,26.10
2019-01-23T16:31:42.156Z,26.33
2019-01-23T16:34:13.804Z,24.30
2019-01-23T16:36:45.609Z,27.60
2019-01-23T16:39:17.643Z,26.07
2019-01-23T16:41:50.512Z,24.77
2019-01-23T16:44:22.184Z,23.83
2019-01-23T16:46:53.699Z,23.20
2019-01-23T16:49:25.602Z,24.27
2019-01-23T16:51:57.348Z,23.83
2019-01-23T16:54:28.971Z,22.80
2019-01-23T16:57:00.658Z,23.10
2019-01-23T16:59:32.487Z,22.10
2019-01-23T17:02:04.033Z,22.87
2019-01-23T17:04:35.929Z,20.80
2019-01-23T17:07:07.686Z,22.17
2019-01-23T17:09:39.913Z,22.83
2019-01-23T17:12:11.345Z,23.33
2019-01-23T17:14:43.840Z,22.10
2019-01-23T17:17:15.433Z,27.03
2019-01-23T17:19:47.334Z,21.73
2019-01-23T17:22:19.156Z,24.83
2019-01-23T17:24:50.819Z,23.60
2019-01-23T17:27:23.254Z,24.80
2019-01-23T17:29:55.007Z,23.07
2019-01-23T17:32:26.898Z,25.70
2019-01-23T17:34:59.430Z,23.97
2019-01-23T17:37:31.725Z,23.73
2019-01-23T17:40:04.401Z,23.90
2019-01-23T17:42:38.406Z,22.70
2019-01-23T17:45:16.635Z,21.47
2019-01-23T17:47:48.432Z,21.67
2019-01-23T17:50:21.090Z,50.20
2019-01-23T17:52:53.100Z,23.60
2019-01-23T17:55:30.834Z,20.50
2019-01-23T17:58:02.578Z,20.47
2019-01-23T18:00:37.450Z,17.67
2019-01-23T18:03:09.231Z,17.70
2019-01-23T18:05:41.283Z,18.87
2019-01-23T18:08:13.064Z,19.77
2019-01-23T18:10:44.473Z,21.33
2019-01-23T18:13:17.298Z,20.83
2019-01-23T18:15:48.848Z,20.37
2019-01-23T18:18:20.297Z,21.90
2019-01-23T18:20:51.707Z,23.60
2019-01-23T18:23:24.290Z,23.87
2019-01-23T18:25:56.878Z,22.60
2019-01-23T18:28:28.440Z,23.93
2019-01-23T18:31:16.420Z,22.27
2019-01-23T18:34:33.689Z,25.50
2019-01-23T18:37:19.420Z,25.60
2019-01-23T18:40:20.201Z,23.17
2019-01-23T18:43:24.067Z,24.07
2019-01-23T18:46:42.547Z,30.90
2019-01-23T18:49:32.450Z,38.47
2019-01-23T18:52:12.304Z,29.03
2019-01-23T18:54:44.243Z,25.30
2019-01-23T18:57:19.137Z,25.33
2019-01-23T18:59:50.671Z,25.13
2019-01-23T19:02:22.287Z,25.00
2019-01-23T19:04:54.265Z,25.70
2019-01-23T19:07:27.450Z,26.10
2019-01-23T19:10:00.359Z,25.50
2019-01-23T19:12:32.901Z,37.97
2019-01-23T19:15:06.367Z,33.00
2019-01-23T19:17:39.091Z,28.40
2019-01-23T19:20:15.266Z,34.70
2019-01-23T19:22:48.698Z,29.00
2019-01-23T19:25:23.377Z,26.33
2019-01-23T19:27:54.994Z,28.40
2019-01-23T19:30:26.783Z,28.20
2019-01-23T19:32:59.030Z,24.43
2019-01-23T19:35:30.815Z,23.13
2019-01-23T19:38:03.641Z,23.40
2019-01-23T19:40:35.237Z,24.37
2019-01-23T19:43:07.022Z,23.80
2019-01-23T19:45:42.157Z,23.03
2019-01-23T19:48:13.830Z,22.97
2019-01-23T19:50:45.428Z,24.37
2019-01-23T19:53:16.879Z,22.37
2019-01-23T19:55:49.403Z,22.60
2019-01-23T19:58:22.431Z,22.90
2019-01-23T20:00:54.401Z,25.13
2019-01-23T20:03:28.771Z,24.03
2019-01-23T20:06:00.836Z,23.83
2019-01-23T20:08:32.469Z,27.07
2019-01-23T20:11:03.863Z,23.03
2019-01-23T20:13:36.732Z,22.87
2019-01-23T20:16:08.496Z,22.47
2019-01-23T20:18:39.903Z,24.43
2019-01-23T20:21:13.525Z,24.73
2019-01-23T20:23:45.440Z,21.83
2019-01-23T20:26:17.066Z,30.23
2019-01-23T20:28:48.978Z,22.50
2019-01-23T20:31:21.474Z,23.57
2019-01-23T20:33:54.466Z,23.03
2019-01-23T20:36:27.209Z,26.77
2019-01-23T20:39:00.247Z,25.27
2019-01-23T20:41:33.574Z,24.83
2019-01-23T20:44:05.417Z,25.03
2019-01-23T20:46:38.409Z,25.20
2019-01-23T20:49:11.741Z,25.87
2019-01-23T20:51:43.366Z,23.73
2019-01-23T20:54:15.187Z,22.57
2019-01-23T20:56:47.488Z,18.57
2019-01-23T20:59:19.144Z,18.17
2019-01-23T21:01:51.032Z,17.47
2019-01-23T21:04:22.590Z,17.37
2019-01-23T21:06:55.629Z,16.90
2019-01-23T21:09:27.044Z,16.37
2019-01-23T21:11:59.120Z,17.90
2019-01-23T21:14:32.086Z,17.13
2019-01-23T21:17:04.080Z,17.03
2019-01-23T21:19:40.891Z,16.87
2019-01-23T21:22:13.224Z,16.57
2019-01-23T21:24:44.582Z,16.03
2019-01-23T21:27:16.704Z,16.03
2019-01-23T21:29:48.622Z,16.63
2019-01-23T21:32:21.334Z,16.53
2019-01-23T21:34:52.925Z,17.00
2019-01-23T21:37:26.062Z,16.67
2019-01-23T21:39:58.035Z,17.60
2019-01-23T21:42:30.787Z,16.80
2019-01-23T21:45:02.680Z,16.87
2019-01-23T21:47:34.654Z,16.33
2019-01-23T21:50:08.695Z,15.23
2019-01-23T21:52:40.269Z,16.50
2019-01-23T21:55:14.199Z,32.77
2019-01-23T21:57:46.364Z,55.10
2019-01-23T22:00:21.065Z,18.60
2019-01-23T22:02:53.371Z,19.20
2019-01-23T22:05:25.124Z,26.27
2019-01-23T22:07:58.172Z,19.87
2019-01-23T22:10:29.779Z,22.10
2019-01-23T22:13:02.367Z,33.57
2019-01-23T22:15:34.406Z,25.07
2019-01-23T22:18:07.919Z,59.63
2019-01-23T22:20:39.697Z,18.70
2019-01-23T22:23:12.551Z,20.37
2019-01-23T22:25:44.159Z,18.20
2019-01-23T22:28:15.654Z,20.70
2019-01-23T22:30:48.910Z,21.47
2019-01-23T22:33:20.582Z,18.80
2019-01-23T22:35:52.500Z,21.80
2019-01-23T22:38:24.704Z,23.87
2019-01-23T22:40:56.505Z,23.17
2019-01-23T22:43:28.297Z,23.60
2019-01-23T22:45:59.997Z,28.83
2019-01-23T22:48:31.533Z,25.33
2019-01-23T22:51:03.530Z,23.97
2019-01-23T22:53:37.442Z,20.43
2019-01-23T22:56:09.066Z,20.00
2019-01-23T22:58:41.668Z,18.93
2019-01-23T23:01:32.362Z,19.40
2019-01-23T23:04:05.264Z,19.10
2019-01-23T23:06:37.826Z,19.23
2019-01-23T23:09:11.066Z,20.07
2019-01-23T23:11:44.170Z,20.13
2019-01-23T23:14:16.936Z,20.13
2019-01-23T23:16:48.602Z,19.00
2019-01-23T23:19:22.076Z,18.57
2019-01-23T23:21:54.316Z,19.03
2019-01-23T23:24:27.020Z,18.90
2019-01-23T23:26:58.688Z,19.10
2019-01-23T23:29:30.527Z,17.97
2019-01-23T23:32:01.927Z,18.60
2019-01-23T23:34:36.623Z,18.70
2019-01-23T23:37:08.526Z,17.93
2019-01-23T23:39:40.110Z,18.07
2019-01-23T23:42:12.772Z,18.73
2019-01-23T23:44:44.180Z,18.63
2019-01-23T23:47:16.292Z,19.17
2019-01-23T23:49:48.559Z,18.10
2019-01-23T23:52:21.155Z,17.60
2019-01-23T23:54:52.601Z,17.37
2019-01-23T23:57:25.915Z,18.17
2019-01-23T23:59:57.523Z,18.47
